Time;durP1;ratioP1;P1;durP2;ratioP2;P2;SDS_P1;SDS_P2;PMS_P1;PMS_P2;Temp;Humidity;BMP_temperature;BMP_pressure;BME280_temperature;BME280_humidity;BME280_pressure;Samples;Min_cycle;Max_cycle;Signal;HPM_P1;HPM_P2
2024/02/27 00:01:10;;;;;;;5.40;2.23;;;10.10;71.00;;;;;;5051588;28;20247;-73
2024/02/27 00:03:35;;;;;;;5.70;2.07;;;10.00;71.10;;;;;;5050994;28;20826;-73
2024/02/27 00:06:02;;;;;;;4.57;2.27;;;10.00;71.30;;;;;;5050807;28;20190;-72
2024/02/27 00:11:50;;;;;;;5.00;2.47;;;10.00;71.70;;;;;;5044639;28;20466;-73
2024/02/27 00:14:16;;;;;;;4.07;1.90;;;10.10;71.60;;;;;;5049762;28;20415;-74
2024/02/27 00:16:41;;;;;;;3.20;2.27;;;10.10;71.40;;;;;;5044887;28;20181;-72
2024/02/27 00:19:07;;;;;;;2.33;1.90;;;10.20;71.30;;;;;;5052639;28;20228;-72
2024/02/27 00:21:33;;;;;;;2.20;1.70;;;10.30;71.10;;;;;;5045170;28;20216;-74
2024/02/27 00:23:59;;;;;;;3.03;2.07;;;10.30;71.10;;;;;;5043917;28;20427;-73
2024/02/27 00:26:24;;;;;;;3.10;1.80;;;10.30;71.10;;;;;;5045825;28;20447;-72
2024/02/27 00:28:50;;;;;;;4.10;2.20;;;10.20;71.30;;;;;;5050290;28;20193;-72
2024/02/27 00:31:16;;;;;;;6.00;2.10;;;10.30;71.30;;;;;;5040341;28;20205;-71
2024/02/27 00:33:41;;;;;;;4.17;1.97;;;10.20;71.30;;;;;;5051788;28;20574;-71
2024/02/27 00:36:08;;;;;;;3.07;1.73;;;10.20;71.40;;;;;;5049966;28;20183;-71
2024/02/27 00:38:33;;;;;;;3.03;1.90;;;10.10;71.60;;;;;;5046058;28;20271;-71
2024/02/27 00:41:01;;;;;;;8.03;2.33;;;10.10;71.80;;;;;;5049104;28;20563;-72
2024/02/27 00:43:27;;;;;;;4.47;2.30;;;10.10;71.80;;;;;;5051018;28;20195;-71
2024/02/27 00:45:52;;;;;;;3.07;2.10;;;10.10;72.10;;;;;;5054609;28;20426;-72
2024/02/27 00:48:18;;;;;;;2.70;1.90;;;10.00;72.30;;;;;;5046905;28;20231;-71
2024/02/27 00:50:44;;;;;;;3.43;2.17;;;9.90;72.90;;;;;;5039400;28;20258;-70
2024/02/27 00:53:09;;;;;;;3.33;1.73;;;9.80;73.00;;;;;;5045530;28;20231;-71
2024/02/27 00:55:35;;;;;;;2.33;1.70;;;9.70;73.30;;;;;;5040272;28;20531;-70
2024/02/27 00:58:00;;;;;;;2.50;1.80;;;9.70;73.60;;;;;;5045031;28;20192;-71
2024/02/27 01:00:26;;;;;;;2.67;2.00;;;9.60;73.90;;;;;;5037195;28;20191;-73
2024/02/27 01:02:51;;;;;;;3.20;1.70;;;9.60;74.30;;;;;;5052967;28;20271;-72
2024/02/27 01:05:17;;;;;;;3.93;1.77;;;9.60;74.50;;;;;;5050760;28;20598;-71
2024/02/27 01:07:44;;;;;;;3.30;1.63;;;9.60;74.30;;;;;;5054364;28;20218;-71
2024/02/27 01:10:10;;;;;;;2.47;2.00;;;9.60;74.50;;;;;;5044382;28;20672;-72
2024/02/27 01:12:35;;;;;;;4.00;2.20;;;9.60;74.80;;;;;;5048195;28;20471;-70
2024/02/27 01:15:01;;;;;;;2.63;1.67;;;9.70;74.80;;;;;;5053754;28;20184;-70
2024/02/27 01:17:27;;;;;;;4.30;1.70;;;9.70;74.60;;;;;;5062525;28;20180;-72
2024/02/27 01:19:52;;;;;;;2.50;1.60;;;9.80;74.30;;;;;;5058844;28;20843;-72
2024/02/27 01:22:29;;;;;;;8.40;2.23;;;9.80;74.20;;;;;;5041842;28;20253;-72
2024/02/27 01:24:55;;;;;;;2.50;1.23;;;9.80;74.20;;;;;;5045729;28;20181;-71
2024/02/27 01:27:21;;;;;;;2.43;1.50;;;9.80;74.00;;;;;;5039942;28;20486;-71
2024/02/27 01:29:46;;;;;;;3.07;1.37;;;9.80;74.20;;;;;;5053670;28;20426;-71
2024/02/27 01:32:12;;;;;;;2.57;1.40;;;9.90;74.00;;;;;;5043564;28;20217;-71
2024/02/27 01:34:38;;;;;;;2.83;2.00;;;9.90;74.00;;;;;;5050789;28;20195;-70
2024/02/27 01:37:03;;;;;;;2.60;1.63;;;9.80;74.30;;;;;;5046422;28;20184;-70
2024/02/27 01:39:29;;;;;;;2.57;1.40;;;9.80;74.50;;;;;;5048881;28;20966;-71
2024/02/27 01:41:54;;;;;;;4.73;1.67;;;9.40;76.20;;;;;;5049346;28;20204;-72
2024/02/27 01:44:20;;;;;;;2.07;1.37;;;9.10;78.10;;;;;;5053281;28;20208;-72
2024/02/27 01:46:47;;;;;;;2.73;1.43;;;9.10;78.40;;;;;;5054844;28;20759;-72
2024/02/27 01:49:14;;;;;;;2.07;1.40;;;9.20;78.40;;;;;;5052248;28;20792;-70
2024/02/27 01:51:42;;;;;;;2.70;1.83;;;9.40;78.10;;;;;;5035362;28;20891;-71
2024/02/27 01:54:08;;;;;;;5.10;2.50;;;9.30;78.00;;;;;;5046183;28;20435;-72
2024/02/27 01:56:34;;;;;;;6.57;2.27;;;9.20;78.40;;;;;;5041922;28;20434;-71
2024/02/27 01:59:00;;;;;;;2.60;1.77;;;9.20;78.70;;;;;;5039369;28;20432;-71
2024/02/27 02:01:28;;;;;;;3.70;1.90;;;9.30;79.00;;;;;;5039195;28;20204;-71
2024/02/27 02:03:55;;;;;;;3.53;1.90;;;9.30;78.70;;;;;;5045314;28;20427;-71
2024/02/27 02:06:21;;;;;;;3.20;2.03;;;9.30;78.90;;;;;;5042705;28;20410;-71
2024/02/27 02:08:46;;;;;;;2.60;1.87;;;9.40;78.70;;;;;;5047186;28;20953;-72
2024/02/27 02:11:13;;;;;;;4.17;2.50;;;9.50;78.70;;;;;;5041367;28;20470;-71
2024/02/27 02:13:39;;;;;;;2.87;2.40;;;9.50;78.60;;;;;;5045491;28;20199;-72
2024/02/27 02:16:05;;;;;;;4.53;2.30;;;9.40;78.60;;;;;;5047217;28;20418;-70
2024/02/27 02:18:31;;;;;;;4.20;2.43;;;9.40;78.70;;;;;;5048658;28;20966;-71
2024/02/27 02:20:56;;;;;;;3.23;2.30;;;9.40;78.90;;;;;;5043291;28;20528;-72
2024/02/27 02:23:22;;;;;;;3.90;2.53;;;9.40;78.90;;;;;;5048901;28;20242;-71
2024/02/27 02:25:48;;;;;;;6.13;3.07;;;9.50;78.70;;;;;;5046073;28;20195;-71
2024/02/27 02:28:15;;;;;;;7.13;3.53;;;9.40;78.40;;;;;;5036202;28;20465;-71
2024/02/27 02:30:41;;;;;;;5.23;3.17;;;9.20;78.40;;;;;;5042606;28;20455;-72
2024/02/27 02:33:07;;;;;;;5.10;3.60;;;9.20;79.20;;;;;;5041382;28;20411;-71
2024/02/27 02:35:33;;;;;;;6.90;4.07;;;9.10;78.90;;;;;;5036084;28;20421;-71
2024/02/27 02:37:58;;;;;;;6.63;4.03;;;8.90;78.70;;;;;;5041074;28;20426;-71
2024/02/27 02:40:25;;;;;;;6.10;4.23;;;8.90;79.20;;;;;;5045264;28;20572;-73
2024/02/27 02:42:51;;;;;;;9.10;4.53;;;8.90;79.00;;;;;;5043704;28;20176;-72
2024/02/27 02:45:17;;;;;;;7.43;4.10;;;8.90;78.90;;;;;;5047208;28;20838;-72
2024/02/27 02:47:42;;;;;;;8.77;5.07;;;8.90;78.40;;;;;;5042669;28;20227;-71
2024/02/27 02:50:09;;;;;;;7.77;4.50;;;8.80;78.10;;;;;;5045589;28;20412;-72
2024/02/27 02:52:35;;;;;;;7.83;4.50;;;8.80;78.30;;;;;;5042598;28;20189;-72
2024/02/27 02:55:05;;;;;;;9.23;5.60;;;8.80;78.30;;;;;;5050824;28;20418;-72
2024/02/27 02:57:31;;;;;;;10.80;5.80;;;8.80;77.80;;;;;;5046307;28;20907;-71
2024/02/27 02:59:57;;;;;;;9.77;6.30;;;8.70;76.70;;;;;;5046009;28;21003;-70
2024/02/27 03:02:23;;;;;;;9.53;5.60;;;8.70;76.80;;;;;;5050153;28;20458;-71
2024/02/27 03:04:49;;;;;;;12.10;6.20;;;8.80;76.40;;;;;;5051677;28;20184;-71
2024/02/27 03:07:14;;;;;;;14.83;7.17;;;8.90;75.90;;;;;;5057197;28;20208;-71
2024/02/27 03:09:40;;;;;;;12.17;6.53;;;8.90;75.70;;;;;;5051195;28;20184;-71
2024/02/27 03:12:06;;;;;;;15.30;7.27;;;8.70;75.20;;;;;;5049822;28;20297;-71
2024/02/27 03:14:32;;;;;;;14.03;6.73;;;8.80;75.40;;;;;;5046734;28;20807;-70
2024/02/27 03:16:57;;;;;;;11.30;6.50;;;8.90;75.20;;;;;;5043507;28;20430;-71
2024/02/27 03:19:25;;;;;;;12.90;6.80;;;8.90;74.60;;;;;;5040869;28;20732;-71
2024/02/27 03:21:50;;;;;;;11.50;7.07;;;8.90;74.00;;;;;;5038367;28;20300;-73
2024/02/27 03:24:16;;;;;;;13.07;7.30;;;8.80;74.20;;;;;;5047182;28;20497;-71
2024/02/27 03:26:42;;;;;;;15.47;7.20;;;8.70;74.00;;;;;;5044568;28;20219;-71
2024/02/27 03:29:08;;;;;;;13.87;6.87;;;8.70;74.20;;;;;;5044609;28;20183;-71
2024/02/27 03:31:33;;;;;;;13.13;7.47;;;8.60;74.00;;;;;;5041256;28;20520;-71
2024/02/27 03:33:59;;;;;;;14.70;7.50;;;8.70;74.20;;;;;;5048682;28;20180;-71
2024/02/27 03:36:25;;;;;;;15.23;7.77;;;8.70;73.90;;;;;;5044356;28;20185;-70
2024/02/27 03:38:50;;;;;;;12.43;6.90;;;8.70;73.70;;;;;;5047714;28;20268;-71
2024/02/27 03:41:17;;;;;;;15.00;7.23;;;8.70;73.30;;;;;;5048344;28;20209;-71
2024/02/27 03:43:43;;;;;;;15.77;7.43;;;8.60;73.30;;;;;;5051607;28;20176;-71
2024/02/27 03:46:10;;;;;;;12.80;6.93;;;8.60;73.30;;;;;;5045934;28;20427;-72
2024/02/27 03:48:35;;;;;;;12.00;7.13;;;8.60;73.60;;;;;;5052000;28;20477;-72
2024/02/27 03:51:01;;;;;;;12.23;7.10;;;8.70;73.60;;;;;;5045939;28;20473;-72
2024/02/27 03:53:32;;;;;;;11.20;6.90;;;8.80;73.30;;;;;;5040762;28;20184;-71
2024/02/27 03:55:59;;;;;;;12.30;6.83;;;8.70;72.70;;;;;;5045520;28;20191;-72
2024/02/27 03:58:24;;;;;;;14.57;6.87;;;8.70;72.90;;;;;;5054893;28;20419;-71
2024/02/27 04:00:50;;;;;;;12.67;7.00;;;8.60;72.90;;;;;;5047406;28;20503;-72
2024/02/27 04:03:16;;;;;;;13.00;7.07;;;8.80;72.90;;;;;;5039238;28;20227;-71
2024/02/27 04:05:42;;;;;;;15.60;7.43;;;8.80;72.30;;;;;;5042635;28;20455;-71
2024/02/27 04:08:08;;;;;;;14.10;7.10;;;8.60;72.00;;;;;;5039728;28;20464;-71
2024/02/27 04:10:34;;;;;;;12.37;7.23;;;8.60;72.70;;;;;;5041244;28;20534;-73
2024/02/27 04:13:00;;;;;;;15.70;7.90;;;8.70;72.40;;;;;;5043805;28;20200;-72
2024/02/27 04:15:26;;;;;;;14.67;7.70;;;8.70;72.30;;;;;;5042103;28;20408;-71
2024/02/27 04:17:51;;;;;;;14.33;7.43;;;8.70;72.40;;;;;;5041814;28;20576;-71
2024/02/27 04:20:17;;;;;;;14.40;6.97;;;8.60;72.70;;;;;;5041022;28;20200;-72
2024/02/27 04:22:42;;;;;;;13.30;8.20;;;8.70;72.40;;;;;;5042359;28;20185;-71
2024/02/27 04:25:08;;;;;;;13.03;7.50;;;8.60;72.90;;;;;;5042257;28;20542;-71
2024/02/27 04:27:34;;;;;;;18.43;8.27;;;8.40;73.00;;;;;;5057702;28;20242;-71
2024/02/27 04:29:59;;;;;;;16.93;8.60;;;8.40;73.60;;;;;;5041670;28;20185;-72
2024/02/27 04:32:25;;;;;;;12.97;7.03;;;8.40;73.30;;;;;;5048497;28;20201;-71
2024/02/27 04:34:50;;;;;;;11.53;7.93;;;8.40;73.30;;;;;;5043116;28;20243;-72
2024/02/27 04:37:16;;;;;;;15.77;7.83;;;8.50;73.20;;;;;;5057090;28;20191;-72
2024/02/27 04:39:45;;;;;;;16.67;7.90;;;8.50;72.70;;;;;;5051679;28;20681;-72
2024/02/27 04:42:11;;;;;;;21.00;8.80;;;8.40;73.20;;;;;;5055126;28;20215;-72
2024/02/27 04:44:37;;;;;;;16.47;7.50;;;8.50;73.20;;;;;;5041910;28;20424;-71
2024/02/27 04:47:04;;;;;;;17.80;7.90;;;8.60;72.70;;;;;;5050768;28;20475;-72
2024/02/27 04:49:30;;;;;;;15.07;8.00;;;8.70;72.30;;;;;;5039812;28;20193;-71
2024/02/27 04:51:56;;;;;;;14.17;7.93;;;8.70;72.30;;;;;;5050038;28;20469;-72
2024/02/27 04:54:21;;;;;;;16.73;8.90;;;8.80;72.00;;;;;;5039166;28;20428;-72
2024/02/27 04:56:47;;;;;;;14.47;7.93;;;8.80;71.70;;;;;;5047599;28;20333;-72
2024/02/27 04:59:13;;;;;;;15.60;8.40;;;8.80;71.80;;;;;;5046398;28;20184;-73
2024/02/27 05:01:38;;;;;;;19.40;8.83;;;8.70;71.60;;;;;;5047013;28;20213;-72
2024/02/27 05:04:04;;;;;;;16.57;9.17;;;8.60;72.40;;;;;;5044427;28;20185;-72
2024/02/27 05:06:29;;;;;;;19.10;8.87;;;8.50;72.60;;;;;;5049597;28;21003;-71
2024/02/27 05:08:55;;;;;;;16.17;8.70;;;8.40;73.30;;;;;;5048314;28;20195;-72
2024/02/27 05:11:20;;;;;;;17.00;8.10;;;8.40;73.70;;;;;;5049789;28;20243;-72
2024/02/27 05:13:46;;;;;;;14.50;7.47;;;8.40;73.60;;;;;;5042705;28;20196;-72
2024/02/27 05:16:12;;;;;;;14.33;7.80;;;8.50;73.60;;;;;;5049599;28;20617;-72
2024/02/27 05:18:38;;;;;;;14.77;8.27;;;8.60;73.50;;;;;;5045732;28;20227;-72
2024/02/27 05:21:04;;;;;;;17.13;9.20;;;8.50;73.50;;;;;;5039895;28;20291;-73
2024/02/27 05:23:30;;;;;;;15.77;8.50;;;8.50;73.60;;;;;;5041724;28;20465;-72
2024/02/27 05:25:56;;;;;;;16.83;9.10;;;8.60;73.50;;;;;;5045531;28;20435;-73
2024/02/27 05:28:21;;;;;;;18.50;9.23;;;8.50;73.50;;;;;;5048881;28;20216;-72
2024/02/27 05:30:47;;;;;;;18.27;9.43;;;8.40;73.90;;;;;;5045997;28;20253;-72
2024/02/27 05:33:13;;;;;;;20.20;10.27;;;8.20;74.50;;;;;;5049214;28;20188;-73
2024/02/27 05:35:38;;;;;;;20.60;9.63;;;8.20;74.90;;;;;;5044984;28;20235;-72
2024/02/27 05:38:04;;;;;;;18.13;9.13;;;8.20;74.90;;;;;;5039975;28;20189;-72
2024/02/27 05:40:29;;;;;;;19.70;9.10;;;8.20;75.10;;;;;;5038631;28;20595;-72
2024/02/27 05:42:55;;;;;;;18.63;9.60;;;8.20;75.10;;;;;;5047653;28;20665;-72
2024/02/27 05:45:21;;;;;;;20.80;9.37;;;8.20;75.40;;;;;;5041024;28;20269;-72
2024/02/27 05:47:46;;;;;;;25.77;11.00;;;8.30;75.20;;;;;;5045291;28;20213;-72
2024/02/27 05:50:13;;;;;;;21.43;9.73;;;8.00;75.20;;;;;;5039591;28;20177;-73
2024/02/27 05:52:38;;;;;;;23.80;11.40;;;8.10;75.50;;;;;;5044771;28;20223;-73
2024/02/27 05:55:04;;;;;;;18.37;10.57;;;8.00;75.50;;;;;;5042685;28;20443;-73
2024/02/27 05:57:30;;;;;;;21.63;10.67;;;8.00;75.80;;;;;;5045997;28;20368;-72
2024/02/27 05:59:58;;;;;;;22.53;10.37;;;8.00;75.80;;;;;;5040475;28;20437;-72
2024/02/27 06:02:24;;;;;;;25.00;11.50;;;8.00;75.50;;;;;;5046783;28;20467;-73
2024/02/27 06:04:50;;;;;;;29.53;10.90;;;8.10;75.50;;;;;;5043424;28;20430;-73
2024/02/27 06:07:16;;;;;;;19.20;11.37;;;8.10;75.10;;;;;;5044377;28;20208;-73
2024/02/27 06:09:42;;;;;;;20.63;11.27;;;8.10;75.10;;;;;;5045711;28;20652;-73
2024/02/27 06:12:07;;;;;;;20.10;10.50;;;8.20;75.10;;;;;;5043217;28;20468;-70
2024/02/27 06:14:33;;;;;;;24.47;11.00;;;8.10;74.90;;;;;;5051126;28;20640;-71
2024/02/27 06:16:58;;;;;;;17.60;10.90;;;8.20;74.90;;;;;;5045906;28;20533;-73
2024/02/27 06:19:26;;;;;;;22.70;11.40;;;8.30;74.80;;;;;;5049749;28;20191;-72
2024/02/27 06:22:14;;;;;;;27.80;11.00;;;8.40;74.60;;;;;;5040654;28;20287;-72
2024/02/27 06:24:40;;;;;;;19.30;9.97;;;8.40;74.80;;;;;;5042002;28;20502;-72
2024/02/27 06:27:07;;;;;;;22.50;11.20;;;8.50;74.60;;;;;;5038982;28;20876;-72
2024/02/27 06:29:33;;;;;;;20.27;10.80;;;8.60;74.20;;;;;;5041813;28;20513;-72
2024/02/27 06:31:59;;;;;;;22.47;11.97;;;8.40;74.20;;;;;;5040849;28;20570;-72
2024/02/27 06:34:24;;;;;;;24.87;12.10;;;8.20;74.60;;;;;;5042562;28;20192;-73
2024/02/27 06:36:51;;;;;;;22.57;11.20;;;8.20;75.20;;;;;;5040679;28;20204;-73
2024/02/27 06:39:17;;;;;;;23.00;12.40;;;8.30;75.20;;;;;;5049179;28;20415;-73
2024/02/27 06:41:50;;;;;;;21.40;11.83;;;8.30;75.10;;;;;;5041775;28;20212;-72
2024/02/27 06:44:18;;;;;;;26.50;12.90;;;8.20;75.20;;;;;;5048821;28;20192;-72
2024/02/27 06:46:44;;;;;;;23.43;12.50;;;8.10;75.40;;;;;;5041230;28;20412;-71
2024/02/27 06:49:10;;;;;;;21.97;11.43;;;8.10;75.50;;;;;;5048610;28;20420;-72
2024/02/27 06:51:37;;;;;;;22.97;11.97;;;8.20;75.70;;;;;;5043094;28;21104;-71
2024/02/27 06:54:03;;;;;;;31.37;13.90;;;8.10;75.20;;;;;;5046945;28;20193;-73
2024/02/27 06:56:29;;;;;;;27.90;14.30;;;8.00;75.50;;;;;;5046516;28;20578;-73
2024/02/27 06:58:55;;;;;;;27.20;12.93;;;7.90;75.80;;;;;;5045807;28;20467;-73
2024/02/27 07:01:21;;;;;;;26.07;13.33;;;7.90;76.10;;;;;;5041914;28;20501;-73
2024/02/27 07:03:47;;;;;;;25.40;13.37;;;7.90;75.90;;;;;;5042188;28;20482;-72
2024/02/27 07:06:13;;;;;;;30.13;14.07;;;7.90;75.80;;;;;;5040079;28;20399;-74
2024/02/27 07:08:38;;;;;;;23.97;14.10;;;7.90;75.90;;;;;;5042157;28;20228;-72
2024/02/27 07:11:06;;;;;;;28.57;14.50;;;7.90;75.80;;;;;;5040707;28;20835;-71
2024/02/27 07:13:31;;;;;;;28.87;14.50;;;7.90;75.80;;;;;;5048936;28;20571;-71
2024/02/27 07:15:57;;;;;;;27.33;13.80;;;7.90;75.80;;;;;;5046540;28;20435;-72
2024/02/27 07:18:22;;;;;;;23.20;12.97;;;7.90;75.50;;;;;;5044353;28;20231;-73
2024/02/27 07:20:48;;;;;;;28.30;14.70;;;7.90;75.50;;;;;;5041619;28;20234;-72
2024/02/27 07:23:15;;;;;;;29.00;14.93;;;7.90;75.50;;;;;;5046825;28;20176;-71
2024/02/27 07:25:40;;;;;;;26.83;13.67;;;7.90;75.50;;;;;;5043375;28;20197;-73
2024/02/27 07:28:06;;;;;;;31.77;15.77;;;8.00;75.10;;;;;;5044202;28;20466;-72
2024/02/27 07:30:31;;;;;;;33.60;14.97;;;8.00;75.10;;;;;;5042349;28;20223;-71
2024/02/27 07:32:57;;;;;;;28.00;14.57;;;8.10;74.60;;;;;;5052663;28;20591;-73
2024/02/27 07:35:23;;;;;;;32.37;15.03;;;8.10;74.50;;;;;;5050715;28;20654;-74
2024/02/27 07:37:48;;;;;;;27.10;14.20;;;8.00;74.50;;;;;;5054114;28;20187;-71
2024/02/27 07:40:14;;;;;;;43.17;17.43;;;8.00;74.80;;;;;;5048053;28;20544;-71
2024/02/27 07:42:40;;;;;;;34.50;15.10;;;8.20;74.80;;;;;;5051217;28;20187;-73
2024/02/27 07:45:06;;;;;;;32.57;15.37;;;8.10;74.20;;;;;;5049455;28;20185;-73
2024/02/27 07:47:32;;;;;;;35.03;14.90;;;8.10;74.50;;;;;;5052958;28;20226;-72
2024/02/27 07:49:58;;;;;;;29.50;13.60;;;8.20;74.60;;;;;;5051894;28;20416;-70
2024/02/27 07:52:23;;;;;;;26.80;14.00;;;8.20;74.50;;;;;;5044251;28;20614;-73
2024/02/27 07:54:49;;;;;;;28.40;14.73;;;8.40;74.50;;;;;;5045109;28;20186;-73
2024/02/27 07:57:14;;;;;;;27.70;13.30;;;8.50;73.70;;;;;;5045136;28;20695;-72
2024/02/27 07:59:40;;;;;;;26.40;14.10;;;8.50;73.30;;;;;;5045651;28;20239;-73
2024/02/27 08:02:06;;;;;;;31.67;14.40;;;8.50;73.30;;;;;;5047931;28;20220;-73
2024/02/27 08:04:31;;;;;;;26.93;14.30;;;8.60;73.20;;;;;;5051256;28;20180;-73
2024/02/27 08:06:57;;;;;;;33.37;14.53;;;8.60;73.20;;;;;;5053876;28;20673;-72
2024/02/27 08:09:22;;;;;;;30.03;15.00;;;8.60;72.90;;;;;;5047424;28;20257;-72
2024/02/27 08:11:48;;;;;;;30.27;15.30;;;8.70;72.70;;;;;;5037503;28;20237;-73
2024/02/27 08:14:14;;;;;;;33.97;14.50;;;8.90;72.10;;;;;;5045860;28;20181;-73
2024/02/27 08:16:39;;;;;;;30.37;14.83;;;9.00;71.70;;;;;;5042854;28;20192;-73
2024/02/27 08:19:05;;;;;;;29.00;14.93;;;9.00;71.60;;;;;;5045462;28;20207;-71
2024/02/27 08:21:34;;;;;;;36.13;15.40;;;8.90;71.40;;;;;;5042670;28;20585;-71
2024/02/27 08:24:02;;;;;;;35.80;16.87;;;8.90;71.80;;;;;;5046176;28;20196;-73
2024/02/27 08:26:28;;;;;;;29.53;14.77;;;8.50;72.60;;;;;;5044494;28;20415;-73
2024/02/27 08:28:55;;;;;;;30.37;15.80;;;8.30;73.70;;;;;;5047740;28;20453;-73
2024/02/27 08:31:22;;;;;;;30.90;14.87;;;8.50;73.30;;;;;;5043999;28;20215;-73
2024/02/27 08:33:48;;;;;;;30.00;14.60;;;8.50;73.20;;;;;;5046773;28;20942;-73
2024/02/27 08:36:14;;;;;;;36.70;16.90;;;8.60;73.00;;;;;;5042839;28;20438;-72
2024/02/27 08:38:44;;;;;;;32.70;15.77;;;8.60;73.00;;;;;;5046683;28;20426;-73
2024/02/27 08:41:09;;;;;;;34.50;15.33;;;8.50;73.70;;;;;;5045367;28;20381;-73
2024/02/27 08:43:35;;;;;;;36.97;17.23;;;8.70;73.30;;;;;;5044997;28;21174;-73
2024/02/27 08:46:00;;;;;;;31.50;15.43;;;8.60;73.50;;;;;;5051045;28;20506;-73
2024/02/27 08:48:26;;;;;;;29.40;15.37;;;8.80;73.60;;;;;;5059090;28;20719;-73
2024/02/27 08:50:52;;;;;;;32.13;15.20;;;8.90;73.20;;;;;;5054507;28;20211;-73
2024/02/27 08:53:17;;;;;;;29.37;14.60;;;9.10;72.70;;;;;;5054450;28;20229;-72
2024/02/27 08:55:43;;;;;;;29.03;14.43;;;9.10;72.30;;;;;;5055014;28;20456;-73
2024/02/27 08:58:08;;;;;;;32.27;16.03;;;9.10;72.60;;;;;;5058856;28;20564;-74
2024/02/27 09:00:34;;;;;;;34.33;16.87;;;9.00;72.10;;;;;;5060019;28;20217;-72
2024/02/27 09:03:00;;;;;;;28.07;15.33;;;8.60;73.50;;;;;;5048644;28;20835;-73
2024/02/27 09:05:25;;;;;;;30.80;15.03;;;8.70;74.20;;;;;;5049215;28;20185;-71
2024/02/27 09:07:51;;;;;;;30.73;16.33;;;8.90;73.60;;;;;;5047247;28;20240;-73
2024/02/27 09:10:17;;;;;;;27.97;14.77;;;8.80;73.70;;;;;;5048622;28;20597;-73
2024/02/27 09:12:43;;;;;;;29.87;15.63;;;9.00;73.30;;;;;;5047877;28;20553;-71
2024/02/27 09:15:10;;;;;;;26.40;15.40;;;9.20;72.40;;;;;;5045606;28;20507;-73
2024/02/27 09:17:36;;;;;;;27.47;14.70;;;9.40;71.60;;;;;;5046261;28;20442;-73
2024/02/27 09:20:03;;;;;;;33.50;16.10;;;9.00;71.80;;;;;;5051578;28;20439;-72
2024/02/27 09:22:30;;;;;;;29.67;14.50;;;9.00;72.60;;;;;;5044035;28;20462;-72
2024/02/27 09:24:57;;;;;;;33.93;17.27;;;9.10;72.90;;;;;;5041516;28;20485;-74
2024/02/27 09:27:23;;;;;;;33.57;17.27;;;8.90;73.20;;;;;;5045886;28;20485;-72
2024/02/27 09:29:49;;;;;;;32.40;16.27;;;9.00;74.30;;;;;;5042222;28;20423;-72
2024/02/27 09:32:16;;;;;;;33.63;16.07;;;8.80;74.00;;;;;;5048777;28;20450;-73
2024/02/27 09:34:43;;;;;;;36.40;17.87;;;8.40;76.10;;;;;;5046212;28;20416;-74
2024/02/27 09:37:08;;;;;;;30.33;16.80;;;8.50;76.20;;;;;;5054585;28;20911;-73
2024/02/27 09:39:34;;;;;;;30.53;16.87;;;8.40;76.80;;;;;;5045005;28;20478;-72
2024/02/27 09:42:11;;;;;;;37.73;17.47;;;8.60;76.80;;;;;;5051796;28;20302;-72
2024/02/27 09:44:52;;;;;;;35.10;16.97;;;8.50;76.40;;;;;;5047989;28;20181;-72
2024/02/27 09:47:18;;;;;;;29.63;16.63;;;8.30;76.50;;;;;;5057162;28;20505;-72
2024/02/27 09:49:47;;;;;;;35.50;16.63;;;8.50;76.80;;;;;;5051498;28;20422;-72
2024/02/27 09:52:16;;;;;;;33.27;17.40;;;8.60;76.80;;;;;;5045972;28;20530;-71
2024/02/27 09:54:42;;;;;;;33.70;16.50;;;8.70;76.20;;;;;;5036146;28;20431;-73
2024/02/27 09:57:08;;;;;;;38.90;17.30;;;8.60;76.40;;;;;;5047529;28;20517;-74
2024/02/27 09:59:37;;;;;;;32.60;15.60;;;8.40;77.60;;;;;;5045922;28;20473;-72
2024/02/27 10:02:11;;;;;;;28.00;16.13;;;8.30;77.40;;;;;;5045156;28;20292;-72
2024/02/27 10:04:38;;;;;;;34.00;16.60;;;8.40;77.30;;;;;;5047625;28;20467;-73
2024/02/27 10:07:11;;;;;;;39.10;18.00;;;8.30;76.70;;;;;;5044787;28;20475;-73
2024/02/27 10:09:55;;;;;;;31.60;15.93;;;8.30;77.10;;;;;;5048242;28;20499;-72
2024/02/27 10:12:20;;;;;;;37.17;19.00;;;8.40;76.50;;;;;;5038942;28;20499;-74
2024/02/27 10:14:46;;;;;;;34.57;17.70;;;8.30;76.70;;;;;;5052085;28;21015;-73
2024/02/27 10:17:11;;;;;;;35.57;18.30;;;8.40;76.70;;;;;;5043561;28;20191;-72
2024/02/27 10:19:37;;;;;;;33.17;17.10;;;8.20;77.10;;;;;;5053507;28;20184;-72
2024/02/27 10:22:03;;;;;;;34.20;16.40;;;8.30;76.80;;;;;;5040366;28;20204;-72
2024/02/27 10:24:29;;;;;;;34.27;15.90;;;8.50;77.40;;;;;;5056599;28;20431;-73
2024/02/27 10:27:04;;;;;;;33.37;17.27;;;8.70;76.70;;;;;;5045349;28;20471;-72
2024/02/27 10:29:31;;;;;;;35.43;17.80;;;8.90;75.80;;;;;;5041728;28;20427;-72
2024/02/27 10:31:57;;;;;;;30.87;16.00;;;8.90;75.40;;;;;;5039509;28;20459;-74
2024/02/27 10:34:26;;;;;;;37.27;17.23;;;8.90;75.40;;;;;;5049705;28;20440;-73
2024/02/27 10:37:02;;;;;;;33.93;16.10;;;8.90;74.60;;;;;;5038398;28;21614;-72
2024/02/27 10:39:32;;;;;;;37.07;17.40;;;9.00;75.10;;;;;;5045102;28;20433;-72
2024/02/27 10:41:58;;;;;;;34.30;17.80;;;9.20;74.90;;;;;;5041067;28;20469;-72
2024/02/27 10:44:26;;;;;;;30.23;16.47;;;9.20;74.20;;;;;;5045036;28;20935;-71
2024/02/27 10:46:54;;;;;;;36.63;17.07;;;9.20;74.20;;;;;;5042759;28;20423;-72
2024/02/27 10:49:20;;;;;;;32.40;18.50;;;9.20;74.30;;;;;;5044832;28;20438;-73
2024/02/27 10:51:47;;;;;;;34.20;17.27;;;9.20;74.20;;;;;;5044889;28;20458;-73
2024/02/27 10:54:16;;;;;;;35.60;16.77;;;9.10;74.50;;;;;;5044113;28;20427;-72
2024/02/27 10:56:43;;;;;;;36.20;18.13;;;9.00;74.90;;;;;;5042515;28;20950;-73
2024/02/27 10:59:09;;;;;;;35.10;18.37;;;9.10;74.50;;;;;;5044981;28;20432;-73
2024/02/27 11:01:36;;;;;;;34.40;17.70;;;9.00;75.10;;;;;;5051714;28;20523;-73
2024/02/27 11:04:04;;;;;;;35.30;17.90;;;9.10;74.50;;;;;;5039556;28;20442;-73
2024/02/27 11:06:32;;;;;;;36.00;18.33;;;9.20;74.60;;;;;;5051970;28;20521;-73
2024/02/27 11:09:06;;;;;;;33.60;18.33;;;9.30;73.90;;;;;;5039514;28;20479;-72
2024/02/27 11:11:34;;;;;;;37.40;18.13;;;9.30;74.20;;;;;;5053023;28;20535;-73
2024/02/27 11:14:05;;;;;;;39.73;17.77;;;9.50;73.50;;;;;;5042433;28;20431;-72
2024/02/27 11:16:32;;;;;;;31.10;16.33;;;9.60;72.90;;;;;;5048419;28;20423;-73
2024/02/27 11:19:09;;;;;;;31.70;16.43;;;9.50;73.30;;;;;;5041569;28;20526;-73
2024/02/27 11:21:36;;;;;;;35.20;17.43;;;9.70;73.60;;;;;;5044376;28;20498;-73
2024/02/27 11:24:03;;;;;;;31.43;18.13;;;9.90;73.00;;;;;;5045194;28;20428;-74
2024/02/27 11:26:30;;;;;;;37.50;18.77;;;9.90;72.10;;;;;;5048077;28;20423;-72
2024/02/27 11:28:57;;;;;;;35.13;18.47;;;10.00;72.30;;;;;;5054068;28;20475;-73
2024/02/27 11:31:23;;;;;;;35.50;17.90;;;10.30;71.70;;;;;;5041792;28;20463;-73
2024/02/27 11:33:52;;;;;;;38.40;17.23;;;9.80;71.60;;;;;;5037976;28;20419;-73
2024/02/27 11:36:18;;;;;;;34.37;18.37;;;9.90;72.40;;;;;;5034971;28;20431;-73
2024/02/27 11:38:44;;;;;;;33.90;18.17;;;9.80;72.70;;;;;;5038325;28;20430;-72
2024/02/27 11:41:17;;;;;;;34.30;17.60;;;9.90;72.40;;;;;;5043017;28;20824;-73
2024/02/27 11:43:47;;;;;;;28.40;16.47;;;10.10;72.10;;;;;;5040726;28;20494;-71
2024/02/27 11:46:31;;;;;;;38.27;17.60;;;10.40;71.70;;;;;;5038971;28;20476;-72
2024/02/27 11:48:58;;;;;;;37.47;19.13;;;10.90;70.20;;;;;;5043843;28;20904;-72
2024/02/27 11:51:25;;;;;;;35.90;17.07;;;10.80;69.10;;;;;;5038601;28;20887;-73
2024/02/27 11:53:51;;;;;;;37.87;18.90;;;11.00;69.50;;;;;;5048867;28;20848;-71
2024/02/27 11:56:20;;;;;;;34.97;19.17;;;10.70;69.40;;;;;;5037039;28;20443;-73
2024/02/27 11:58:47;;;;;;;39.93;19.13;;;10.00;71.60;;;;;;5041548;28;20427;-72
2024/02/27 12:01:14;;;;;;;41.97;18.50;;;9.90;72.40;;;;;;5042394;28;20446;-72
2024/02/27 12:03:40;;;;;;;36.97;18.63;;;10.00;72.70;;;;;;5043712;28;20431;-72
2024/02/27 12:06:08;;;;;;;38.23;18.60;;;9.90;73.00;;;;;;5045324;28;20449;-74
2024/02/27 12:08:34;;;;;;;42.27;21.57;;;9.90;73.20;;;;;;5051049;28;20515;-73
2024/02/27 12:10:59;;;;;;;38.13;20.53;;;10.00;73.30;;;;;;5047848;28;21011;-73
2024/02/27 12:13:26;;;;;;;41.27;20.80;;;10.10;73.20;;;;;;5049895;28;20226;-72
2024/02/27 12:15:56;;;;;;;41.80;20.03;;;9.70;73.60;;;;;;5041874;28;20184;-72
2024/02/27 12:18:22;;;;;;;41.10;19.90;;;9.60;74.50;;;;;;5040454;28;20533;-72
2024/02/27 12:20:51;;;;;;;44.30;21.50;;;9.40;75.70;;;;;;5043028;28;21194;-73
2024/02/27 12:23:17;;;;;;;47.40;21.50;;;9.50;75.50;;;;;;5051983;28;20192;-74
2024/02/27 12:25:45;;;;;;;41.30;19.73;;;9.60;75.50;;;;;;5048535;28;20427;-73
2024/02/27 12:28:14;;;;;;;42.57;21.47;;;9.70;75.40;;;;;;5045560;28;20551;-73
2024/02/27 12:30:46;;;;;;;38.17;19.40;;;9.60;74.90;;;;;;5052960;28;20886;-72
2024/02/27 12:33:13;;;;;;;39.90;20.70;;;9.70;75.10;;;;;;5044617;28;20500;-74
2024/02/27 12:35:38;;;;;;;46.73;20.63;;;9.70;74.80;;;;;;5057130;28;20446;-72
2024/02/27 12:38:04;;;;;;;44.00;21.40;;;9.60;75.20;;;;;;5050578;28;20466;-72
2024/02/27 12:40:30;;;;;;;36.67;20.83;;;9.60;75.40;;;;;;5052967;28;20204;-72
2024/02/27 12:42:55;;;;;;;36.60;19.37;;;9.70;75.20;;;;;;5045178;28;20190;-73